Wetterdaten: Woche 23.04.18 - 29.04.18 (KW17)
Datum Zeit Temperatur Luftfeuchte Luftdruck Niederschlag Windrichtung Sonnenschein Solar Wind
23.04.2018 00:00 13,3 C 78 % 1012,9 hPa 0,0 l/m N 0,00 h 0 W/m 0,0 km/h (0 Bft)
23.04.2018 01:00 12,3 C 81 % 1013,3 hPa 0,0 l/m N 0,00 h 0 W/m 0,0 km/h (0 Bft)
23.04.2018 02:00 11,6 C 86 % 1013,3 hPa 0,0 l/m N 0,00 h 0 W/m 0,0 km/h (0 Bft)
23.04.2018 03:00 11,2 C 86 % 1013,5 hPa 0,0 l/m N 0,00 h 0 W/m 0,0 km/h (0 Bft)
23.04.2018 04:00 11,7 C 84 % 1013,5 hPa 0,0 l/m N 0,00 h 0 W/m 0,0 km/h (0 Bft)
23.04.2018 05:00 12,0 C 83 % 1013,4 hPa 0,0 l/m N 0,00 h 0 W/m 0,0 km/h (0 Bft)
23.04.2018 06:00 11,6 C 84 % 1013,2 hPa 0,0 l/m N 0,25 h 28 W/m 0,0 km/h (0 Bft)
23.04.2018 07:00 13,4 C 79 % 1013,4 hPa 0,0 l/m SW 0,58 h 115 W/m 4,8 km/h (1 Bft)
23.04.2018 08:00 15,9 C 66 % 1013,4 hPa 0,0 l/m SW 0,42 h 194 W/m 13,0 km/h (3 Bft)
23.04.2018 09:00 17,3 C 65 % 1013,5 hPa 0,0 l/m SW 0,75 h 354 W/m 8,7 km/h (2 Bft)
23.04.2018 10:00 19,7 C 58 % 1013,8 hPa 0,0 l/m W-SW 0,58 h 439 W/m 13,2 km/h (3 Bft)
23.04.2018 11:00 20,8 C 55 % 1013,9 hPa 0,0 l/m W-SW 0,67 h 499 W/m 14,2 km/h (3 Bft)
23.04.2018 12:00 21,6 C 53 % 1013,7 hPa 0,0 l/m W-SW 0,92 h 530 W/m 13,6 km/h (3 Bft)
23.04.2018 13:00 21,7 C 51 % 1013,4 hPa 0,0 l/m N-NW 0,67 h 587 W/m 20,2 km/h (4 Bft)
23.04.2018 14:00 20,2 C 58 % 1013,8 hPa 5,2 l/m N-NO 0,25 h 278 W/m 20,1 km/h (4 Bft)
23.04.2018 15:00 14,3 C 91 % 1014,4 hPa 3,2 l/m N 0,33 h 313 W/m 15,6 km/h (3 Bft)
23.04.2018 16:00 16,1 C 87 % 1014,2 hPa 0,0 l/m N 0,83 h 450 W/m 14,4 km/h (3 Bft)
23.04.2018 17:00 17,2 C 78 % 1014,1 hPa 0,0 l/m N 0,75 h 322 W/m 10,3 km/h (2 Bft)
23.04.2018 18:00 16,3 C 79 % 1014,2 hPa 0,0 l/m W-NW 0,00 h 110 W/m 6,6 km/h (2 Bft)
23.04.2018 19:00 15,5 C 81 % 1014,6 hPa 0,0 l/m W-NW 0,00 h 30 W/m 5,8 km/h (1 Bft)
23.04.2018 20:00 14,7 C 81 % 1015,4 hPa 0,2 l/m W-NW 0,00 h 7 W/m 6,7 km/h (2 Bft)
23.04.2018 21:00 13,0 C 89 % 1016,2 hPa 0,8 l/m SW 0,00 h 0 W/m 10,5 km/h (2 Bft)
23.04.2018 22:00 12,4 C 94 % 1016,7 hPa 1,4 l/m SW 0,00 h 0 W/m 11,6 km/h (2 Bft)
23.04.2018 23:00 12,3 C 96 % 1017,0 hPa 0,0 l/m SW 0,00 h 0 W/m 11,5 km/h (2 Bft)
24.04.2018 00:00 12,0 C 97 % 1017,1 hPa 0,0 l/m SW 0,00 h 0 W/m 10,9 km/h (2 Bft)
24.04.2018 01:00 11,8 C 97 % 1017,1 hPa 0,0 l/m SW 0,00 h 0 W/m 9,5 km/h (2 Bft)
24.04.2018 02:00 11,7 C 97 % 1017,1 hPa 0,0 l/m SW 0,00 h 0 W/m 8,6 km/h (2 Bft)
24.04.2018 03:00 11,8 C 96 % 1017,2 hPa 0,0 l/m W-SW 0,00 h 0 W/m 6,3 km/h (2 Bft)
24.04.2018 04:00 11,5 C 96 % 1017,3 hPa 0,0 l/m N 0,00 h 0 W/m 0,7 km/h (0 Bft)
24.04.2018 05:00 11,0 C 97 % 1017,4 hPa 0,0 l/m W-SW 0,00 h 0 W/m 1,1 km/h (0 Bft)
24.04.2018 06:00 11,0 C 97 % 1017,3 hPa 0,0 l/m N 0,00 h 18 W/m 0,0 km/h (0 Bft)
24.04.2018 07:00 11,1 C 98 % 1017,6 hPa 0,0 l/m W-SW 0,00 h 86 W/m 3,4 km/h (1 Bft)
24.04.2018 08:00 12,4 C 96 % 1017,9 hPa 0,0 l/m W-SW 0,42 h 205 W/m 7,1 km/h (2 Bft)
24.04.2018 09:00 13,9 C 91 % 1018,0 hPa 0,0 l/m W-SW 0,83 h 423 W/m 14,1 km/h (3 Bft)
24.04.2018 10:00 16,0 C 83 % 1017,4 hPa 0,0 l/m SW 0,75 h 553 W/m 12,6 km/h (3 Bft)
24.04.2018 11:00 17,2 C 73 % 1017,2 hPa 0,0 l/m W 0,92 h 754 W/m 16,2 km/h (3 Bft)
24.04.2018 12:00 18,2 C 67 % 1016,8 hPa 0,0 l/m W 0,92 h 828 W/m 21,6 km/h (4 Bft)
24.04.2018 13:00 19,5 C 59 % 1016,3 hPa 0,0 l/m W-SW 1,00 h 850 W/m 23,3 km/h (4 Bft)
24.04.2018 14:00 20,5 C 54 % 1015,7 hPa 0,0 l/m W-SW 1,00 h 845 W/m 19,8 km/h (4 Bft)
24.04.2018 15:00 21,0 C 49 % 1015,1 hPa 0,0 l/m SW 1,00 h 706 W/m 21,0 km/h (4 Bft)
24.04.2018 16:00 21,2 C 49 % 1014,5 hPa 0,0 l/m W-SW 1,00 h 578 W/m 18,2 km/h (3 Bft)
24.04.2018 17:00 21,2 C 49 % 1013,8 hPa 0,0 l/m W-SW 1,00 h 421 W/m 16,0 km/h (3 Bft)
24.04.2018 18:00 20,3 C 51 % 1013,5 hPa 0,0 l/m W-SW 1,00 h 225 W/m 12,9 km/h (3 Bft)
24.04.2018 19:00 18,9 C 55 % 1013,0 hPa 0,0 l/m W-SW 0,25 h 57 W/m 9,0 km/h (2 Bft)
24.04.2018 20:00 16,5 C 62 % 1012,9 hPa 0,0 l/m W-SW 0,00 h 9 W/m 6,0 km/h (2 Bft)
24.04.2018 21:00 14,8 C 69 % 1013,2 hPa 0,0 l/m W-SW 0,00 h 0 W/m 2,1 km/h (1 Bft)
24.04.2018 22:00 13,0 C 80 % 1013,2 hPa 0,0 l/m N 0,00 h 0 W/m 0,0 km/h (0 Bft)
24.04.2018 23:00 11,9 C 85 % 1013,0 hPa 0,0 l/m N 0,00 h 0 W/m 0,0 km/h (0 Bft)
25.04.2018 00:00 10,9 C 88 % 1012,9 hPa 0,0 l/m N 0,00 h 0 W/m 0,0 km/h (0 Bft)
25.04.2018 01:00 10,1 C 91 % 1012,7 hPa 0,0 l/m N 0,00 h 0 W/m 0,0 km/h (0 Bft)
25.04.2018 02:00 9,2 C 92 % 1012,3 hPa 0,0 l/m N 0,00 h 0 W/m 0,0 km/h (0 Bft)
25.04.2018 03:00 9,0 C 93 % 1012,2 hPa 0,0 l/m N 0,00 h 0 W/m 0,0 km/h (0 Bft)
25.04.2018 04:00 9,0 C 93 % 1012,3 hPa 0,0 l/m N 0,00 h 0 W/m 0,1 km/h (0 Bft)
25.04.2018 05:00 8,7 C 94 % 1012,2 hPa 0,0 l/m N 0,00 h 0 W/m 0,0 km/h (0 Bft)
25.04.2018 06:00 8,4 C 95 % 1012,3 hPa 0,0 l/m W-SW 0,08 h 23 W/m 1,2 km/h (1 Bft)
25.04.2018 07:00 10,1 C 95 % 1012,2 hPa 0,0 l/m W-SW 0,58 h 110 W/m 6,8 km/h (2 Bft)
25.04.2018 08:00 13,1 C 89 % 1012,0 hPa 0,0 l/m SW 0,92 h 275 W/m 11,4 km/h (2 Bft)
25.04.2018 09:00 16,0 C 78 % 1011,8 hPa 0,0 l/m W-SW 0,83 h 417 W/m 18,0 km/h (3 Bft)
25.04.2018 10:00 18,4 C 65 % 1011,8 hPa 0,0 l/m W-SW 0,83 h 564 W/m 28,0 km/h (4 Bft)
25.04.2018 11:00 19,4 C 62 % 1011,7 hPa 0,0 l/m W 1,00 h 743 W/m 31,1 km/h (5 Bft)
25.04.2018 12:00 20,3 C 57 % 1011,2 hPa 0,0 l/m W 1,00 h 818 W/m 37,7 km/h (5 Bft)
25.04.2018 13:00 21,1 C 51 % 1011,0 hPa 0,0 l/m W 0,83 h 747 W/m 36,2 km/h (5 Bft)
25.04.2018 14:00 21,8 C 48 % 1010,9 hPa 0,0 l/m W 0,75 h 688 W/m 30,7 km/h (5 Bft)
25.04.2018 15:00 21,2 C 51 % 1010,8 hPa 0,0 l/m W 0,67 h 587 W/m 27,3 km/h (4 Bft)
25.04.2018 16:00 21,6 C 50 % 1010,1 hPa 0,0 l/m W-NW 0,67 h 464 W/m 32,7 km/h (5 Bft)
25.04.2018 17:00 21,6 C 48 % 1010,0 hPa 0,0 l/m W-NW 1,00 h 452 W/m 29,6 km/h (5 Bft)
25.04.2018 18:00 19,8 C 52 % 1010,0 hPa 0,0 l/m W 0,50 h 167 W/m 23,8 km/h (4 Bft)
25.04.2018 19:00 18,6 C 55 % 1009,9 hPa 0,0 l/m W-NW 0,08 h 52 W/m 15,7 km/h (3 Bft)
25.04.2018 20:00 17,6 C 59 % 1010,4 hPa 0,0 l/m NW 0,08 h 10 W/m 9,0 km/h (2 Bft)
25.04.2018 21:00 16,6 C 64 % 1011,4 hPa 0,0 l/m NW 0,00 h 0 W/m 2,3 km/h (1 Bft)
25.04.2018 22:00 15,6 C 69 % 1011,9 hPa 0,0 l/m NW 0,00 h 0 W/m 2,1 km/h (1 Bft)
25.04.2018 23:00 14,7 C 73 % 1012,2 hPa 0,0 l/m NW 0,00 h 0 W/m 2,1 km/h (1 Bft)
26.04.2018 00:00 13,8 C 78 % 1012,6 hPa 0,0 l/m NW 0,00 h 0 W/m 7,0 km/h (2 Bft)
26.04.2018 01:00 13,2 C 78 % 1013,1 hPa 0,0 l/m W-NW 0,00 h 0 W/m 13,2 km/h (3 Bft)
26.04.2018 02:00 12,6 C 80 % 1013,1 hPa 0,0 l/m NW 0,00 h 0 W/m 4,3 km/h (1 Bft)
26.04.2018 03:00 12,1 C 79 % 1013,2 hPa 0,0 l/m NW 0,00 h 0 W/m 6,2 km/h (2 Bft)
26.04.2018 04:00 11,8 C 80 % 1013,4 hPa 0,0 l/m N 0,00 h 0 W/m 2,9 km/h (1 Bft)
26.04.2018 05:00 10,8 C 81 % 1013,9 hPa 0,0 l/m N-NW 0,00 h 0 W/m 15,6 km/h (3 Bft)
26.04.2018 06:00 9,6 C 82 % 1014,5 hPa 0,0 l/m W-NW 0,00 h 8 W/m 16,4 km/h (3 Bft)
26.04.2018 07:00 9,4 C 82 % 1015,1 hPa 0,0 l/m W-NW 0,00 h 50 W/m 12,6 km/h (3 Bft)
26.04.2018 08:00 9,7 C 75 % 1015,6 hPa 0,0 l/m W-NW 0,00 h 124 W/m 11,4 km/h (2 Bft)
26.04.2018 09:00 10,0 C 71 % 1016,3 hPa 0,0 l/m W 0,08 h 198 W/m 17,8 km/h (3 Bft)
26.04.2018 10:00 10,2 C 70 % 1016,5 hPa 0,0 l/m W-NW 0,00 h 201 W/m 16,2 km/h (3 Bft)
26.04.2018 11:00 10,6 C 72 % 1016,7 hPa 0,0 l/m W 0,00 h 170 W/m 8,1 km/h (2 Bft)
26.04.2018 12:00 10,4 C 73 % 1016,8 hPa 0,0 l/m NW 0,00 h 87 W/m 9,7 km/h (2 Bft)
26.04.2018 13:00 11,2 C 70 % 1016,6 hPa 0,0 l/m W-NW 0,00 h 279 W/m 7,2 km/h (2 Bft)
26.04.2018 14:00 11,9 C 63 % 1016,5 hPa 0,0 l/m W 0,00 h 270 W/m 14,5 km/h (3 Bft)
26.04.2018 15:00 12,5 C 58 % 1016,4 hPa 0,0 l/m W 0,25 h 351 W/m 17,8 km/h (3 Bft)
26.04.2018 16:00 13,0 C 60 % 1016,1 hPa 0,0 l/m SW 0,50 h 399 W/m 16,9 km/h (3 Bft)
26.04.2018 17:00 12,8 C 60 % 1015,9 hPa 0,0 l/m W-SW 0,17 h 182 W/m 13,7 km/h (3 Bft)
26.04.2018 18:00 12,5 C 64 % 1015,7 hPa 0,0 l/m SW 0,00 h 105 W/m 7,4 km/h (2 Bft)
26.04.2018 19:00 11,9 C 68 % 1015,7 hPa 0,0 l/m W-SW 0,00 h 52 W/m 10,3 km/h (2 Bft)
26.04.2018 20:00 10,5 C 75 % 1016,2 hPa 0,0 l/m N 0,00 h 13 W/m 1,1 km/h (0 Bft)
26.04.2018 21:00 9,4 C 81 % 1016,8 hPa 0,0 l/m N 0,00 h 0 W/m 0,0 km/h (0 Bft)
26.04.2018 22:00 9,2 C 82 % 1016,9 hPa 0,0 l/m W-SW 0,00 h 0 W/m 0,5 km/h (0 Bft)
26.04.2018 23:00 8,2 C 84 % 1016,7 hPa 0,0 l/m N 0,00 h 0 W/m 0,0 km/h (0 Bft)
27.04.2018 00:00 8,0 C 82 % 1016,6 hPa 0,0 l/m W-SW 0,00 h 0 W/m 1,5 km/h (1 Bft)
27.04.2018 01:00 7,6 C 76 % 1016,3 hPa 0,0 l/m N 0,00 h 0 W/m 0,5 km/h (0 Bft)
27.04.2018 02:00 7,1 C 78 % 1015,8 hPa 0,0 l/m N 0,00 h 0 W/m 0,0 km/h (0 Bft)
27.04.2018 03:00 6,5 C 79 % 1015,4 hPa 0,0 l/m N 0,00 h 0 W/m 0,0 km/h (0 Bft)
27.04.2018 04:00 6,1 C 80 % 1014,7 hPa 0,0 l/m N 0,00 h 0 W/m 0,5 km/h (0 Bft)
27.04.2018 05:00 5,6 C 81 % 1013,9 hPa 0,0 l/m N 0,00 h 0 W/m 0,8 km/h (0 Bft)
27.04.2018 06:00 5,0 C 82 % 1013,3 hPa 0,0 l/m N 0,08 h 22 W/m 0,4 km/h (0 Bft)
27.04.2018 07:00 6,1 C 80 % 1013,0 hPa 0,0 l/m W-SW 0,50 h 123 W/m 3,2 km/h (1 Bft)
27.04.2018 08:00 9,0 C 75 % 1012,5 hPa 0,0 l/m N-NO 1,00 h 335 W/m 9,2 km/h (2 Bft)
27.04.2018 09:00 11,5 C 70 % 1011,7 hPa 0,0 l/m O 0,83 h 398 W/m 14,8 km/h (3 Bft)
27.04.2018 10:00 13,4 C 64 % 1010,9 hPa 0,0 l/m O 0,92 h 581 W/m 18,5 km/h (3 Bft)
27.04.2018 11:00 15,4 C 58 % 1010,2 hPa 0,0 l/m O-SO 1,00 h 753 W/m 17,7 km/h (3 Bft)
27.04.2018 12:00 17,1 C 53 % 1009,3 hPa 0,0 l/m O 1,00 h 822 W/m 17,7 km/h (3 Bft)
27.04.2018 13:00 18,9 C 48 % 1008,4 hPa 0,0 l/m O 1,00 h 839 W/m 14,2 km/h (3 Bft)
27.04.2018 14:00 20,1 C 47 % 1007,9 hPa 0,0 l/m O-SO 1,00 h 800 W/m 10,2 km/h (2 Bft)
27.04.2018 15:00 21,0 C 46 % 1007,3 hPa 0,0 l/m S 1,00 h 720 W/m 6,0 km/h (2 Bft)
27.04.2018 16:00 22,1 C 43 % 1006,7 hPa 0,0 l/m S-SW 1,00 h 587 W/m 10,9 km/h (2 Bft)
27.04.2018 17:00 22,3 C 37 % 1006,6 hPa 0,0 l/m W-SW 1,00 h 416 W/m 16,4 km/h (3 Bft)
27.04.2018 18:00 21,4 C 38 % 1006,7 hPa 0,0 l/m W-SW 0,92 h 255 W/m 14,8 km/h (3 Bft)
27.04.2018 19:00 19,5 C 46 % 1006,8 hPa 0,0 l/m W-SW 0,00 h 52 W/m 8,6 km/h (2 Bft)
27.04.2018 20:00 18,0 C 51 % 1007,2 hPa 0,0 l/m W-SW 0,08 h 12 W/m 7,8 km/h (2 Bft)
27.04.2018 21:00 17,5 C 52 % 1007,8 hPa 0,0 l/m W-SW 0,00 h 0 W/m 12,8 km/h (3 Bft)
27.04.2018 22:00 16,9 C 54 % 1008,4 hPa 0,0 l/m W-SW 0,00 h 0 W/m 14,1 km/h (3 Bft)
27.04.2018 23:00 17,0 C 52 % 1008,7 hPa 0,0 l/m W 0,00 h 0 W/m 6,6 km/h (2 Bft)
28.04.2018 00:00 13,6 C 64 % 1009,1 hPa 0,0 l/m W 0,00 h 0 W/m 1,9 km/h (1 Bft)
28.04.2018 01:00 10,6 C 78 % 1009,6 hPa 0,0 l/m N 0,00 h 0 W/m 0,0 km/h (0 Bft)
28.04.2018 02:00 10,0 C 80 % 1009,8 hPa 0,0 l/m N 0,00 h 0 W/m 0,0 km/h (0 Bft)
28.04.2018 03:00 9,9 C 81 % 1010,0 hPa 0,0 l/m N 0,00 h 0 W/m 0,0 km/h (0 Bft)
28.04.2018 04:00 9,4 C 84 % 1010,3 hPa 0,0 l/m N 0,00 h 0 W/m 0,0 km/h (0 Bft)
28.04.2018 05:00 8,9 C 84 % 1010,6 hPa 0,0 l/m N 0,00 h 0 W/m 0,0 km/h (0 Bft)
28.04.2018 06:00 8,3 C 84 % 1011,0 hPa 0,0 l/m N 0,08 h 14 W/m 0,0 km/h (0 Bft)
28.04.2018 07:00 9,5 C 85 % 1011,4 hPa 0,0 l/m N 0,17 h 90 W/m 0,0 km/h (0 Bft)
28.04.2018 08:00 11,6 C 81 % 1011,5 hPa 0,0 l/m N 0,17 h 192 W/m 0,0 km/h (0 Bft)
28.04.2018 09:00 15,2 C 61 % 1011,2 hPa 0,0 l/m N 0,83 h 445 W/m 5,2 km/h (1 Bft)
28.04.2018 10:00 17,1 C 55 % 1010,7 hPa 0,0 l/m O-SO 1,00 h 584 W/m 12,0 km/h (2 Bft)
28.04.2018 11:00 18,4 C 50 % 1010,5 hPa 0,0 l/m O-SO 1,00 h 690 W/m 10,9 km/h (2 Bft)
28.04.2018 12:00 19,5 C 48 % 1009,8 hPa 0,0 l/m O-SO 1,00 h 723 W/m 9,5 km/h (2 Bft)
28.04.2018 13:00 20,3 C 47 % 1008,9 hPa 0,0 l/m NO 1,00 h 639 W/m 12,1 km/h (2 Bft)
28.04.2018 14:00 21,3 C 46 % 1008,3 hPa 0,0 l/m O-NO 1,00 h 765 W/m 13,6 km/h (3 Bft)
28.04.2018 15:00 21,7 C 45 % 1007,7 hPa 0,0 l/m NO 0,75 h 610 W/m 10,5 km/h (2 Bft)
28.04.2018 16:00 22,6 C 44 % 1006,9 hPa 0,0 l/m O 1,00 h 570 W/m 13,2 km/h (3 Bft)
28.04.2018 17:00 22,7 C 45 % 1006,5 hPa 0,0 l/m O-NO 1,00 h 416 W/m 13,6 km/h (3 Bft)
28.04.2018 18:00 21,8 C 49 % 1006,2 hPa 0,0 l/m NO 1,00 h 233 W/m 14,4 km/h (3 Bft)
28.04.2018 19:00 20,0 C 55 % 1006,3 hPa 0,0 l/m NO 0,08 h 52 W/m 9,8 km/h (2 Bft)
28.04.2018 20:00 17,8 C 62 % 1006,4 hPa 0,0 l/m NO 0,00 h 12 W/m 5,3 km/h (1 Bft)
28.04.2018 21:00 15,7 C 70 % 1006,7 hPa 0,0 l/m N 0,00 h 0 W/m 1,7 km/h (1 Bft)
28.04.2018 22:00 14,6 C 73 % 1006,9 hPa 0,0 l/m N 0,00 h 0 W/m 1,3 km/h (1 Bft)
28.04.2018 23:00 13,8 C 76 % 1006,9 hPa 0,0 l/m N 0,00 h 0 W/m 0,0 km/h (0 Bft)
29.04.2018 00:00 13,1 C 78 % 1007,2 hPa 0,0 l/m N-NO 0,00 h 0 W/m 6,4 km/h (2 Bft)
29.04.2018 01:00 12,2 C 81 % 1007,6 hPa 0,0 l/m N-NW 0,00 h 0 W/m 11,7 km/h (2 Bft)
29.04.2018 02:00 11,2 C 80 % 1007,6 hPa 0,0 l/m N 0,00 h 0 W/m 13,4 km/h (3 Bft)
29.04.2018 03:00 10,4 C 78 % 1007,5 hPa 0,0 l/m N 0,00 h 0 W/m 2,0 km/h (1 Bft)
29.04.2018 04:00 9,6 C 80 % 1007,4 hPa 0,0 l/m N 0,00 h 0 W/m 0,5 km/h (0 Bft)
29.04.2018 05:00 8,6 C 84 % 1007,1 hPa 0,0 l/m N 0,00 h 0 W/m 0,0 km/h (0 Bft)
29.04.2018 06:00 8,0 C 88 % 1007,3 hPa 0,0 l/m N 0,00 h 23 W/m 0,0 km/h (0 Bft)
29.04.2018 07:00 10,3 C 84 % 1007,0 hPa 0,0 l/m N 0,08 h 81 W/m 2,4 km/h (1 Bft)
29.04.2018 08:00 12,9 C 77 % 1006,4 hPa 0,0 l/m N 0,67 h 269 W/m 3,9 km/h (1 Bft)
29.04.2018 09:00 16,0 C 68 % 1005,7 hPa 0,0 l/m O-SO 0,83 h 388 W/m 14,6 km/h (3 Bft)
29.04.2018 10:00 18,2 C 63 % 1005,2 hPa 0,0 l/m O-SO 0,92 h 578 W/m 13,7 km/h (3 Bft)
29.04.2018 11:00 20,6 C 57 % 1004,6 hPa 0,0 l/m O-SO 1,00 h 750 W/m 13,0 km/h (3 Bft)
29.04.2018 12:00 22,7 C 51 % 1003,8 hPa 0,0 l/m O-SO 1,00 h 822 W/m 11,8 km/h (2 Bft)
29.04.2018 13:00 24,9 C 44 % 1003,0 hPa 0,0 l/m O-SO 1,00 h 843 W/m 13,0 km/h (3 Bft)
29.04.2018 14:00 25,8 C 36 % 1002,1 hPa 0,0 l/m SW 0,92 h 789 W/m 18,5 km/h (3 Bft)
29.04.2018 15:00 26,8 C 32 % 1000,8 hPa 0,0 l/m S-SO 1,00 h 752 W/m 16,2 km/h (3 Bft)
29.04.2018 16:00 26,7 C 33 % 999,8 hPa 0,0 l/m SW 0,92 h 565 W/m 14,2 km/h (3 Bft)
29.04.2018 17:00 26,8 C 32 % 998,8 hPa 0,0 l/m S 1,00 h 473 W/m 17,0 km/h (3 Bft)
29.04.2018 18:00 25,2 C 36 % 998,0 hPa 0,0 l/m SW 0,75 h 209 W/m 13,8 km/h (3 Bft)
29.04.2018 19:00 22,0 C 45 % 997,5 hPa 0,0 l/m N 0,00 h 39 W/m 2,0 km/h (1 Bft)
29.04.2018 20:00 19,3 C 50 % 997,3 hPa 0,0 l/m W-SW 0,08 h 12 W/m 2,1 km/h (1 Bft)
29.04.2018 21:00 18,0 C 53 % 997,0 hPa 0,0 l/m N 0,00 h 0 W/m 0,9 km/h (0 Bft)
29.04.2018 22:00 15,9 C 62 % 996,6 hPa 0,0 l/m N 0,00 h 0 W/m 0,0 km/h (0 Bft)
29.04.2018 23:00 15,6 C 61 % 996,2 hPa 0,0 l/m SW 0,00 h 0 W/m 0,5 km/h (0 Bft)
Min-Datum _ 27.04.18 29.04.18 29.04.18 - - - - 23.04.18
_ Min-Zeit 06:50 15:50 23:45 - - - - 00:00
Minimum _ 4,8 C 29 % 996,0 hPa - - - - 0,0 km/h (0 Bft)
Max-Datum _ 29.04.18 24.04.18 24.04.18 23.04.18 - 23.04.18 29.04.18 25.04.18
_ Max-Zeit 15:55 06:30 09:25 14:50 - 06:30 14:15 13:40
Maximum _ 27,3 C 98 % 1018,2 hPa 5,2 l/m - 0,08 h 1048 W/m 46,7 km/h
W (6 Bft)
Durchschnitt _ 14,9 C 69 % 1011,3 hPa #10,8 l/m W-SW #59:30 h 369 W/m 9,2 km/h (2 Bft)